<?xml version="1.0" encoding="utf-8"?>
<gpx xmlns:xsi="http://www.w3.org/2001/XMLSchema-instance" xmlns:xsd="http://www.w3.org/2001/XMLSchema" version="1.1" creator="Shapelink.com" xmlns="http://www.topografix.com/GPX/1/1" xmlns:gpxtpx="http://www.garmin.com/xmlschemas/TrackPointExtension/v1">
  <metadata>
    <name>Löpning 5.19 km, 2018-08-01</name>
    <desc></desc>
    <author><name>Stefan Östlund</name></author> 
    <time>2018-08-01T07:25:07Z</time>
  </metadata>
  <trk>
    <name>Löpning 5.19 km, 2018-08-01</name>
    <trkseg>
      <trkpt lat="62.317988333598" lon="17.440037191313">
        <ele>34.2</ele>
        <time>2018-08-01T07:27:02Z</time>
      </trkpt>
      <trkpt lat="62.317860509623" lon="17.439716835095">
        <ele>34.4</ele>
        <time>2018-08-01T07:27:06Z</time>
      </trkpt>
      <trkpt lat="62.317851708628" lon="17.439678948907">
        <ele>34.6</ele>
        <time>2018-08-01T07:27:07Z</time>
      </trkpt>
      <trkpt lat="62.3178423209" lon="17.439637793778">
        <ele>35</ele>
        <time>2018-08-01T07:27:08Z</time>
      </trkpt>
      <trkpt lat="62.317833939" lon="17.439592782975">
        <ele>35.2</ele>
        <time>2018-08-01T07:27:09Z</time>
      </trkpt>
      <trkpt lat="62.317758166624" lon="17.439293632964">
        <ele>36.2</ele>
        <time>2018-08-01T07:27:15Z</time>
      </trkpt>
      <trkpt lat="62.317741067548" lon="17.439240072623">
        <ele>36.4</ele>
        <time>2018-08-01T07:27:16Z</time>
      </trkpt>
      <trkpt lat="62.317679795859" lon="17.438959781887">
        <ele>37</ele>
        <time>2018-08-01T07:27:22Z</time>
      </trkpt>
      <trkpt lat="62.317681891334" lon="17.438830113894">
        <ele>37.4</ele>
        <time>2018-08-01T07:27:26Z</time>
      </trkpt>
      <trkpt lat="62.317775517157" lon="17.438708408706">
        <ele>38.6</ele>
        <time>2018-08-01T07:27:31Z</time>
      </trkpt>
      <trkpt lat="62.317950363591" lon="17.438706648507">
        <ele>39</ele>
        <time>2018-08-01T07:27:37Z</time>
      </trkpt>
      <trkpt lat="62.318084893086" lon="17.438736488071">
        <ele>39.4</ele>
        <time>2018-08-01T07:27:41Z</time>
      </trkpt>
      <trkpt lat="62.318181871669" lon="17.438734224958">
        <ele>39.6</ele>
        <time>2018-08-01T07:27:44Z</time>
      </trkpt>
      <trkpt lat="62.318343139425" lon="17.438665409559">
        <ele>39.8</ele>
        <time>2018-08-01T07:27:50Z</time>
      </trkpt>
      <trkpt lat="62.318489990313" lon="17.438562563646">
        <ele>39.4</ele>
        <time>2018-08-01T07:27:56Z</time>
      </trkpt>
      <trkpt lat="62.318672631914" lon="17.438540770706">
        <ele>39.4</ele>
        <time>2018-08-01T07:28:02Z</time>
      </trkpt>
      <trkpt lat="62.318814788938" lon="17.438406157392">
        <ele>39.2</ele>
        <time>2018-08-01T07:28:08Z</time>
      </trkpt>
      <trkpt lat="62.318881341224" lon="17.43829484576">
        <ele>38.6</ele>
        <time>2018-08-01T07:28:12Z</time>
      </trkpt>
      <trkpt lat="62.318986617888" lon="17.438111533607">
        <ele>38.2</ele>
        <time>2018-08-01T07:28:18Z</time>
      </trkpt>
      <trkpt lat="62.319113184578" lon="17.437932077128">
        <ele>38</ele>
        <time>2018-08-01T07:28:24Z</time>
      </trkpt>
      <trkpt lat="62.319159452666" lon="17.437862172082">
        <ele>38</ele>
        <time>2018-08-01T07:28:27Z</time>
      </trkpt>
      <trkpt lat="62.319315523644" lon="17.43778271167">
        <ele>37.8</ele>
        <time>2018-08-01T07:28:33Z</time>
      </trkpt>
      <trkpt lat="62.319399761739" lon="17.437756643961">
        <ele>37.6</ele>
        <time>2018-08-01T07:28:36Z</time>
      </trkpt>
      <trkpt lat="62.319473773916" lon="17.437501415106">
        <ele>37.6</ele>
        <time>2018-08-01T07:28:42Z</time>
      </trkpt>
      <trkpt lat="62.319485508576" lon="17.437205869312">
        <ele>37.2</ele>
        <time>2018-08-01T07:28:46Z</time>
      </trkpt>
      <trkpt lat="62.31960838723" lon="17.437008056472">
        <ele>37</ele>
        <time>2018-08-01T07:28:52Z</time>
      </trkpt>
      <trkpt lat="62.319697570646" lon="17.437006128635">
        <ele>37</ele>
        <time>2018-08-01T07:28:55Z</time>
      </trkpt>
      <trkpt lat="62.319834111797" lon="17.437047367583">
        <ele>36.6</ele>
        <time>2018-08-01T07:28:58Z</time>
      </trkpt>
      <trkpt lat="62.319992864983" lon="17.437021383693">
        <ele>36.2</ele>
        <time>2018-08-01T07:29:04Z</time>
      </trkpt>
      <trkpt lat="62.320171567091" lon="17.437013001793">
        <ele>35.8</ele>
        <time>2018-08-01T07:29:10Z</time>
      </trkpt>
      <trkpt lat="62.320323782395" lon="17.437025909919">
        <ele>35.6</ele>
        <time>2018-08-01T07:29:15Z</time>
      </trkpt>
      <trkpt lat="62.320514722077" lon="17.437074022025">
        <ele>35.4</ele>
        <time>2018-08-01T07:29:21Z</time>
      </trkpt>
      <trkpt lat="62.320698201868" lon="17.437015600182">
        <ele>35.2</ele>
        <time>2018-08-01T07:29:26Z</time>
      </trkpt>
      <trkpt lat="62.320861648918" lon="17.436923650739">
        <ele>34.8</ele>
        <time>2018-08-01T07:29:32Z</time>
      </trkpt>
      <trkpt lat="62.320964913926" lon="17.436838825911">
        <ele>34.4</ele>
        <time>2018-08-01T07:29:36Z</time>
      </trkpt>
      <trkpt lat="62.3211196438" lon="17.436748888124">
        <ele>34.2</ele>
        <time>2018-08-01T07:29:42Z</time>
      </trkpt>
      <trkpt lat="62.32127806171" lon="17.43668887372">
        <ele>33.8</ele>
        <time>2018-08-01T07:29:48Z</time>
      </trkpt>
      <trkpt lat="62.321464726623" lon="17.436710499022">
        <ele>33.6</ele>
        <time>2018-08-01T07:29:53Z</time>
      </trkpt>
      <trkpt lat="62.321591712408" lon="17.436732878695">
        <ele>33.2</ele>
        <time>2018-08-01T07:29:57Z</time>
      </trkpt>
      <trkpt lat="62.321768989593" lon="17.436784762656">
        <ele>33</ele>
        <time>2018-08-01T07:30:03Z</time>
      </trkpt>
      <trkpt lat="62.321868482746" lon="17.436803035198">
        <ele>32.2</ele>
        <time>2018-08-01T07:30:07Z</time>
      </trkpt>
      <trkpt lat="62.321972166849" lon="17.436716366352">
        <ele>31.4</ele>
        <time>2018-08-01T07:30:13Z</time>
      </trkpt>
      <trkpt lat="62.322019776041" lon="17.436642354175">
        <ele>31.2</ele>
        <time>2018-08-01T07:30:16Z</time>
      </trkpt>
      <trkpt lat="62.322094039675" lon="17.436427526078">
        <ele>30</ele>
        <time>2018-08-01T07:30:22Z</time>
      </trkpt>
      <trkpt lat="62.322185486204" lon="17.436344042354">
        <ele>29</ele>
        <time>2018-08-01T07:30:26Z</time>
      </trkpt>
      <trkpt lat="62.32235597405" lon="17.436144972229">
        <ele>28.8</ele>
        <time>2018-08-01T07:30:32Z</time>
      </trkpt>
      <trkpt lat="62.322514475779" lon="17.435970209614">
        <ele>28.4</ele>
        <time>2018-08-01T07:30:38Z</time>
      </trkpt>
      <trkpt lat="62.322690579498" lon="17.435844984028">
        <ele>28.2</ele>
        <time>2018-08-01T07:30:44Z</time>
      </trkpt>
      <trkpt lat="62.322853188358" lon="17.435710622171">
        <ele>28.6</ele>
        <time>2018-08-01T07:30:50Z</time>
      </trkpt>
      <trkpt lat="62.323012947372" lon="17.435600148729">
        <ele>28.8</ele>
        <time>2018-08-01T07:30:56Z</time>
      </trkpt>
      <trkpt lat="62.323165330314" lon="17.435478946455">
        <ele>29.2</ele>
        <time>2018-08-01T07:31:02Z</time>
      </trkpt>
      <trkpt lat="62.323332884495" lon="17.43535698981">
        <ele>29.4</ele>
        <time>2018-08-01T07:31:08Z</time>
      </trkpt>
      <trkpt lat="62.323418296056" lon="17.435126822836">
        <ele>30</ele>
        <time>2018-08-01T07:31:13Z</time>
      </trkpt>
      <trkpt lat="62.323430868906" lon="17.434969243116">
        <ele>30.4</ele>
        <time>2018-08-01T07:31:16Z</time>
      </trkpt>
      <trkpt lat="62.323439502263" lon="17.434764557118">
        <ele>31</ele>
        <time>2018-08-01T07:31:20Z</time>
      </trkpt>
      <trkpt lat="62.323458864452" lon="17.434455600284">
        <ele>32.2</ele>
        <time>2018-08-01T07:31:26Z</time>
      </trkpt>
      <trkpt lat="62.323493314061" lon="17.434166340915">
        <ele>33.4</ele>
        <time>2018-08-01T07:31:32Z</time>
      </trkpt>
      <trkpt lat="62.323512424793" lon="17.433971377921">
        <ele>34.4</ele>
        <time>2018-08-01T07:31:36Z</time>
      </trkpt>
      <trkpt lat="62.323534888285" lon="17.433720088559">
        <ele>35.4</ele>
        <time>2018-08-01T07:31:41Z</time>
      </trkpt>
      <trkpt lat="62.323573193568" lon="17.433445832791">
        <ele>36</ele>
        <time>2018-08-01T07:31:47Z</time>
      </trkpt>
      <trkpt lat="62.323624742253" lon="17.433138971432">
        <ele>36</ele>
        <time>2018-08-01T07:31:53Z</time>
      </trkpt>
      <trkpt lat="62.323658605129" lon="17.432920036204">
        <ele>36.6</ele>
        <time>2018-08-01T07:31:57Z</time>
      </trkpt>
      <trkpt lat="62.323704537941" lon="17.432610492637">
        <ele>37</ele>
        <time>2018-08-01T07:32:03Z</time>
      </trkpt>
      <trkpt lat="62.323760361395" lon="17.43234285857">
        <ele>37.6</ele>
        <time>2018-08-01T07:32:09Z</time>
      </trkpt>
      <trkpt lat="62.323782321973" lon="17.432312096997">
        <ele>37.6</ele>
        <time>2018-08-01T07:32:10Z</time>
      </trkpt>
      <trkpt lat="62.323919366038" lon="17.432147811757">
        <ele>37.8</ele>
        <time>2018-08-01T07:32:16Z</time>
      </trkpt>
      <trkpt lat="62.324083735097" lon="17.432139346038">
        <ele>38.2</ele>
        <time>2018-08-01T07:32:22Z</time>
      </trkpt>
      <trkpt lat="62.324212816357" lon="17.432136747649">
        <ele>38.4</ele>
        <time>2018-08-01T07:32:28Z</time>
      </trkpt>
      <trkpt lat="62.324345920929" lon="17.431992076055">
        <ele>38.2</ele>
        <time>2018-08-01T07:32:34Z</time>
      </trkpt>
      <trkpt lat="62.32444893448" lon="17.431760148882">
        <ele>38.4</ele>
        <time>2018-08-01T07:32:40Z</time>
      </trkpt>
      <trkpt lat="62.324573321876" lon="17.431522941112">
        <ele>38.6</ele>
        <time>2018-08-01T07:32:46Z</time>
      </trkpt>
      <trkpt lat="62.32467105483" lon="17.431284895152">
        <ele>38.8</ele>
        <time>2018-08-01T07:32:51Z</time>
      </trkpt>
      <trkpt lat="62.324772727277" lon="17.430982643838">
        <ele>39.4</ele>
        <time>2018-08-01T07:32:57Z</time>
      </trkpt>
      <trkpt lat="62.324838609011" lon="17.430775191813">
        <ele>39.8</ele>
        <time>2018-08-01T07:33:02Z</time>
      </trkpt>
      <trkpt lat="62.324920164898" lon="17.430553155282">
        <ele>40.6</ele>
        <time>2018-08-01T07:33:08Z</time>
      </trkpt>
      <trkpt lat="62.324973389963" lon="17.430393312449">
        <ele>41</ele>
        <time>2018-08-01T07:33:12Z</time>
      </trkpt>
      <trkpt lat="62.325046983045" lon="17.430204216785">
        <ele>41.4</ele>
        <time>2018-08-01T07:33:18Z</time>
      </trkpt>
      <trkpt lat="62.325100375748" lon="17.429944545523">
        <ele>41.4</ele>
        <time>2018-08-01T07:33:24Z</time>
      </trkpt>
      <trkpt lat="62.325134154805" lon="17.429582112167">
        <ele>41.6</ele>
        <time>2018-08-01T07:33:30Z</time>
      </trkpt>
      <trkpt lat="62.325229205551" lon="17.429257816456">
        <ele>41.6</ele>
        <time>2018-08-01T07:33:36Z</time>
      </trkpt>
      <trkpt lat="62.325301625167" lon="17.428866130269">
        <ele>41.6</ele>
        <time>2018-08-01T07:33:42Z</time>
      </trkpt>
      <trkpt lat="62.325357280983" lon="17.428500763248">
        <ele>41.2</ele>
        <time>2018-08-01T07:33:48Z</time>
      </trkpt>
      <trkpt lat="62.325407740021" lon="17.428172947139">
        <ele>41.6</ele>
        <time>2018-08-01T07:33:54Z</time>
      </trkpt>
      <trkpt lat="62.325407153288" lon="17.428034729608">
        <ele>42.2</ele>
        <time>2018-08-01T07:33:56Z</time>
      </trkpt>
      <trkpt lat="62.325418301215" lon="17.427666428922">
        <ele>42</ele>
        <time>2018-08-01T07:34:02Z</time>
      </trkpt>
      <trkpt lat="62.325489463546" lon="17.42743525612">
        <ele>42.4</ele>
        <time>2018-08-01T07:34:08Z</time>
      </trkpt>
      <trkpt lat="62.325569678329" lon="17.427244903171">
        <ele>42.2</ele>
        <time>2018-08-01T07:34:14Z</time>
      </trkpt>
      <trkpt lat="62.325620305005" lon="17.426956817268">
        <ele>42.2</ele>
        <time>2018-08-01T07:34:20Z</time>
      </trkpt>
      <trkpt lat="62.325685516187" lon="17.426710137951">
        <ele>42.2</ele>
        <time>2018-08-01T07:34:26Z</time>
      </trkpt>
      <trkpt lat="62.325712841181" lon="17.42630034686">
        <ele>42.6</ele>
        <time>2018-08-01T07:34:32Z</time>
      </trkpt>
      <trkpt lat="62.325782410951" lon="17.425967333973">
        <ele>42.8</ele>
        <time>2018-08-01T07:34:38Z</time>
      </trkpt>
      <trkpt lat="62.32589229766" lon="17.425688384341">
        <ele>42.8</ele>
        <time>2018-08-01T07:34:44Z</time>
      </trkpt>
      <trkpt lat="62.326016517418" lon="17.42541605641">
        <ele>42</ele>
        <time>2018-08-01T07:34:50Z</time>
      </trkpt>
      <trkpt lat="62.326144089936" lon="17.42518387778">
        <ele>41.8</ele>
        <time>2018-08-01T07:34:56Z</time>
      </trkpt>
      <trkpt lat="62.326254731016" lon="17.424939377757">
        <ele>42.2</ele>
        <time>2018-08-01T07:35:02Z</time>
      </trkpt>
      <trkpt lat="62.326389009054" lon="17.424761513839">
        <ele>42</ele>
        <time>2018-08-01T07:35:08Z</time>
      </trkpt>
      <trkpt lat="62.326517168305" lon="17.424547775389">
        <ele>41.8</ele>
        <time>2018-08-01T07:35:14Z</time>
      </trkpt>
      <trkpt lat="62.326631916516" lon="17.424305706117">
        <ele>42.4</ele>
        <time>2018-08-01T07:35:20Z</time>
      </trkpt>
      <trkpt lat="62.326739288655" lon="17.424021811164">
        <ele>42.6</ele>
        <time>2018-08-01T07:35:26Z</time>
      </trkpt>
      <trkpt lat="62.326841799292" lon="17.42370195786">
        <ele>42.4</ele>
        <time>2018-08-01T07:35:32Z</time>
      </trkpt>
      <trkpt lat="62.326955625494" lon="17.423440107304">
        <ele>42.4</ele>
        <time>2018-08-01T07:35:38Z</time>
      </trkpt>
      <trkpt lat="62.327068864963" lon="17.423192170702">
        <ele>42.4</ele>
        <time>2018-08-01T07:35:44Z</time>
      </trkpt>
      <trkpt lat="62.327185708649" lon="17.422975833863">
        <ele>42.2</ele>
        <time>2018-08-01T07:35:50Z</time>
      </trkpt>
      <trkpt lat="62.327288889838" lon="17.422678444051">
        <ele>41</ele>
        <time>2018-08-01T07:35:56Z</time>
      </trkpt>
      <trkpt lat="62.327400872022" lon="17.422451294561">
        <ele>40.2</ele>
        <time>2018-08-01T07:36:02Z</time>
      </trkpt>
      <trkpt lat="62.327421240039" lon="17.422414414201">
        <ele>40</ele>
        <time>2018-08-01T07:36:03Z</time>
      </trkpt>
      <trkpt lat="62.327547890548" lon="17.422203944692">
        <ele>39.2</ele>
        <time>2018-08-01T07:36:09Z</time>
      </trkpt>
      <trkpt lat="62.327573539162" lon="17.422182235571">
        <ele>39</ele>
        <time>2018-08-01T07:36:10Z</time>
      </trkpt>
      <trkpt lat="62.32765920218" lon="17.422068912283">
        <ele>38</ele>
        <time>2018-08-01T07:36:14Z</time>
      </trkpt>
      <trkpt lat="62.327812507131" lon="17.42189733479">
        <ele>37</ele>
        <time>2018-08-01T07:36:20Z</time>
      </trkpt>
      <trkpt lat="62.32791568832" lon="17.421826759192">
        <ele>36.8</ele>
        <time>2018-08-01T07:36:24Z</time>
      </trkpt>
      <trkpt lat="62.328079051551" lon="17.421750819178">
        <ele>36.8</ele>
        <time>2018-08-01T07:36:30Z</time>
      </trkpt>
      <trkpt lat="62.328243672067" lon="17.421694576629">
        <ele>37</ele>
        <time>2018-08-01T07:36:36Z</time>
      </trkpt>
      <trkpt lat="62.328417428854" lon="17.421686530005">
        <ele>37.2</ele>
        <time>2018-08-01T07:36:42Z</time>
      </trkpt>
      <trkpt lat="62.328601243921" lon="17.421614278027">
        <ele>36.8</ele>
        <time>2018-08-01T07:36:48Z</time>
      </trkpt>
      <trkpt lat="62.328890251833" lon="17.421306746116">
        <ele>35.4</ele>
        <time>2018-08-01T07:36:59Z</time>
      </trkpt>
      <trkpt lat="62.329030816296" lon="17.421164253816">
        <ele>35.4</ele>
        <time>2018-08-01T07:37:05Z</time>
      </trkpt>
      <trkpt lat="62.329140367729" lon="17.420946994968">
        <ele>35.4</ele>
        <time>2018-08-01T07:37:11Z</time>
      </trkpt>
      <trkpt lat="62.329311442308" lon="17.420778937873">
        <ele>35</ele>
        <time>2018-08-01T07:37:17Z</time>
      </trkpt>
      <trkpt lat="62.329344215537" lon="17.420695789425">
        <ele>34.6</ele>
        <time>2018-08-01T07:37:19Z</time>
      </trkpt>
      <trkpt lat="62.329436081161" lon="17.420505185019">
        <ele>33.2</ele>
        <time>2018-08-01T07:37:24Z</time>
      </trkpt>
      <trkpt lat="62.329511434442" lon="17.420368224773">
        <ele>32</ele>
        <time>2018-08-01T07:37:28Z</time>
      </trkpt>
      <trkpt lat="62.329593912338" lon="17.420149457183">
        <ele>31</ele>
        <time>2018-08-01T07:37:32Z</time>
      </trkpt>
      <trkpt lat="62.329678066614" lon="17.419935718733">
        <ele>29.8</ele>
        <time>2018-08-01T07:37:36Z</time>
      </trkpt>
      <trkpt lat="62.329779236147" lon="17.419680154602">
        <ele>29</ele>
        <time>2018-08-01T07:37:42Z</time>
      </trkpt>
      <trkpt lat="62.329887027381" lon="17.419471445292">
        <ele>29</ele>
        <time>2018-08-01T07:37:48Z</time>
      </trkpt>
      <trkpt lat="62.329979815014" lon="17.419188472348">
        <ele>29.4</ele>
        <time>2018-08-01T07:37:54Z</time>
      </trkpt>
      <trkpt lat="62.330089282628" lon="17.418893178011">
        <ele>30.4</ele>
        <time>2018-08-01T07:38:00Z</time>
      </trkpt>
      <trkpt lat="62.330217106603" lon="17.418629315799">
        <ele>30.6</ele>
        <time>2018-08-01T07:38:06Z</time>
      </trkpt>
      <trkpt lat="62.330320539249" lon="17.418379870455">
        <ele>30.6</ele>
        <time>2018-08-01T07:38:12Z</time>
      </trkpt>
      <trkpt lat="62.330354234487" lon="17.418312144703">
        <ele>30.8</ele>
        <time>2018-08-01T07:38:14Z</time>
      </trkpt>
      <trkpt lat="62.330448447043" lon="17.418099914995">
        <ele>31.6</ele>
        <time>2018-08-01T07:38:20Z</time>
      </trkpt>
      <trkpt lat="62.33050820999" lon="17.41786396451">
        <ele>32</ele>
        <time>2018-08-01T07:38:25Z</time>
      </trkpt>
      <trkpt lat="62.330592531904" lon="17.417534472021">
        <ele>32.6</ele>
        <time>2018-08-01T07:38:31Z</time>
      </trkpt>
      <trkpt lat="62.330646846616" lon="17.417341101588">
        <ele>33</ele>
        <time>2018-08-01T07:38:35Z</time>
      </trkpt>
      <trkpt lat="62.330729408331" lon="17.417040694292">
        <ele>33.6</ele>
        <time>2018-08-01T07:38:41Z</time>
      </trkpt>
      <trkpt lat="62.330814903711" lon="17.41676761199">
        <ele>34</ele>
        <time>2018-08-01T07:38:47Z</time>
      </trkpt>
      <trkpt lat="62.330839546497" lon="17.416752859846">
        <ele>34</ele>
        <time>2018-08-01T07:38:48Z</time>
      </trkpt>
      <trkpt lat="62.33098849286" lon="17.416720757169">
        <ele>34.4</ele>
        <time>2018-08-01T07:38:54Z</time>
      </trkpt>
      <trkpt lat="62.331132996816" lon="17.416708603414">
        <ele>34.8</ele>
        <time>2018-08-01T07:39:00Z</time>
      </trkpt>
      <trkpt lat="62.331159148344" lon="17.416713045821">
        <ele>35</ele>
        <time>2018-08-01T07:39:01Z</time>
      </trkpt>
      <trkpt lat="62.331316392788" lon="17.4167751557">
        <ele>35</ele>
        <time>2018-08-01T07:39:07Z</time>
      </trkpt>
      <trkpt lat="62.331466344979" lon="17.416778927555">
        <ele>35</ele>
        <time>2018-08-01T07:39:13Z</time>
      </trkpt>
      <trkpt lat="62.331533651636" lon="17.41674246629">
        <ele>35</ele>
        <time>2018-08-01T07:39:15Z</time>
      </trkpt>
      <trkpt lat="62.33168838151" lon="17.416539959586">
        <ele>35</ele>
        <time>2018-08-01T07:39:20Z</time>
      </trkpt>
      <trkpt lat="62.331755688167" lon="17.416210886192">
        <ele>35.4</ele>
        <time>2018-08-01T07:39:26Z</time>
      </trkpt>
      <trkpt lat="62.331779911858" lon="17.415969487472">
        <ele>35.8</ele>
        <time>2018-08-01T07:39:32Z</time>
      </trkpt>
      <trkpt lat="62.331719310721" lon="17.415756251936">
        <ele>36.2</ele>
        <time>2018-08-01T07:39:35Z</time>
      </trkpt>
      <trkpt lat="62.331614453152" lon="17.415394153856">
        <ele>36.4</ele>
        <time>2018-08-01T07:39:39Z</time>
      </trkpt>
      <trkpt lat="62.33161294441" lon="17.415061140969">
        <ele>37</ele>
        <time>2018-08-01T07:39:45Z</time>
      </trkpt>
      <trkpt lat="62.331616716265" lon="17.415011520121">
        <ele>37.4</ele>
        <time>2018-08-01T07:39:46Z</time>
      </trkpt>
      <trkpt lat="62.331669186959" lon="17.414694600482">
        <ele>37.6</ele>
        <time>2018-08-01T07:39:52Z</time>
      </trkpt>
      <trkpt lat="62.331744707878" lon="17.414425457673">
        <ele>38.2</ele>
        <time>2018-08-01T07:39:58Z</time>
      </trkpt>
      <trkpt lat="62.331753508873" lon="17.414379860137">
        <ele>38.4</ele>
        <time>2018-08-01T07:39:59Z</time>
      </trkpt>
      <trkpt lat="62.331831209086" lon="17.414133599915">
        <ele>38.8</ele>
        <time>2018-08-01T07:40:05Z</time>
      </trkpt>
      <trkpt lat="62.331937575397" lon="17.413873174282">
        <ele>39.2</ele>
        <time>2018-08-01T07:40:11Z</time>
      </trkpt>
      <trkpt lat="62.332014605058" lon="17.413721880987">
        <ele>39.2</ele>
        <time>2018-08-01T07:40:19Z</time>
      </trkpt>
      <trkpt lat="62.332009073004" lon="17.414008877243">
        <ele>39</ele>
        <time>2018-08-01T07:40:25Z</time>
      </trkpt>
      <trkpt lat="62.331915279543" lon="17.414224292073">
        <ele>38.6</ele>
        <time>2018-08-01T07:40:31Z</time>
      </trkpt>
      <trkpt lat="62.331818887693" lon="17.41447683872">
        <ele>38</ele>
        <time>2018-08-01T07:40:37Z</time>
      </trkpt>
      <trkpt lat="62.331710425907" lon="17.414708346798">
        <ele>37.8</ele>
        <time>2018-08-01T07:40:43Z</time>
      </trkpt>
      <trkpt lat="62.331601628845" lon="17.414989140448">
        <ele>37.2</ele>
        <time>2018-08-01T07:40:49Z</time>
      </trkpt>
      <trkpt lat="62.331642197241" lon="17.415393399485">
        <ele>36.8</ele>
        <time>2018-08-01T07:40:54Z</time>
      </trkpt>
      <trkpt lat="62.331731799752" lon="17.415750719882">
        <ele>36.2</ele>
        <time>2018-08-01T07:41:00Z</time>
      </trkpt>
      <trkpt lat="62.331816540761" lon="17.416060682544">
        <ele>35.8</ele>
        <time>2018-08-01T07:41:06Z</time>
      </trkpt>
      <trkpt lat="62.331749737018" lon="17.416355306329">
        <ele>35.4</ele>
        <time>2018-08-01T07:41:12Z</time>
      </trkpt>
      <trkpt lat="62.33160707708" lon="17.416408112299">
        <ele>35</ele>
        <time>2018-08-01T07:41:17Z</time>
      </trkpt>
      <trkpt lat="62.331431308637" lon="17.416430408153">
        <ele>35.2</ele>
        <time>2018-08-01T07:41:23Z</time>
      </trkpt>
      <trkpt lat="62.331266352845" lon="17.416485812512">
        <ele>35</ele>
        <time>2018-08-01T07:41:29Z</time>
      </trkpt>
      <trkpt lat="62.331100726501" lon="17.416563764182">
        <ele>34.8</ele>
        <time>2018-08-01T07:41:35Z</time>
      </trkpt>
      <trkpt lat="62.33093233413" lon="17.416711117984">
        <ele>34.6</ele>
        <time>2018-08-01T07:41:41Z</time>
      </trkpt>
      <trkpt lat="62.330836864289" lon="17.416911110118">
        <ele>34</ele>
        <time>2018-08-01T07:41:47Z</time>
      </trkpt>
      <trkpt lat="62.33076134337" lon="17.417107581854">
        <ele>33.6</ele>
        <time>2018-08-01T07:41:53Z</time>
      </trkpt>
      <trkpt lat="62.330657072534" lon="17.417399355793">
        <ele>33.2</ele>
        <time>2018-08-01T07:41:59Z</time>
      </trkpt>
      <trkpt lat="62.330640308734" lon="17.417458364369">
        <ele>33</ele>
        <time>2018-08-01T07:42:00Z</time>
      </trkpt>
      <trkpt lat="62.330541653771" lon="17.417784420279">
        <ele>32.2</ele>
        <time>2018-08-01T07:42:06Z</time>
      </trkpt>
      <trkpt lat="62.330436712383" lon="17.418081223358">
        <ele>32</ele>
        <time>2018-08-01T07:42:12Z</time>
      </trkpt>
      <trkpt lat="62.330417936927" lon="17.418115924424">
        <ele>31.8</ele>
        <time>2018-08-01T07:42:13Z</time>
      </trkpt>
      <trkpt lat="62.330314420462" lon="17.418356484954">
        <ele>31</ele>
        <time>2018-08-01T07:42:19Z</time>
      </trkpt>
      <trkpt lat="62.330203695563" lon="17.418570642499">
        <ele>31</ele>
        <time>2018-08-01T07:42:25Z</time>
      </trkpt>
      <trkpt lat="62.330128929015" lon="17.41870047813">
        <ele>30.8</ele>
        <time>2018-08-01T07:42:29Z</time>
      </trkpt>
      <trkpt lat="62.330038739771" lon="17.418855794737">
        <ele>30.4</ele>
        <time>2018-08-01T07:42:35Z</time>
      </trkpt>
      <trkpt lat="62.330012336786" lon="17.418916144417">
        <ele>30</ele>
        <time>2018-08-01T07:42:37Z</time>
      </trkpt>
      <trkpt lat="62.329973193313" lon="17.418995018096">
        <ele>29.8</ele>
        <time>2018-08-01T07:42:39Z</time>
      </trkpt>
      <trkpt lat="62.329882752612" lon="17.419264999095">
        <ele>29</ele>
        <time>2018-08-01T07:42:45Z</time>
      </trkpt>
      <trkpt lat="62.329775296654" lon="17.419597760525">
        <ele>29.2</ele>
        <time>2018-08-01T07:42:51Z</time>
      </trkpt>
      <trkpt lat="62.329653507647" lon="17.419957008759">
        <ele>30.2</ele>
        <time>2018-08-01T07:42:57Z</time>
      </trkpt>
      <trkpt lat="62.329630876517" lon="17.420014257136">
        <ele>30.4</ele>
        <time>2018-08-01T07:42:58Z</time>
      </trkpt>
      <trkpt lat="62.329574047235" lon="17.420180302575">
        <ele>31</ele>
        <time>2018-08-01T07:43:01Z</time>
      </trkpt>
      <trkpt lat="62.329525096939" lon="17.420318352468">
        <ele>32</ele>
        <time>2018-08-01T07:43:04Z</time>
      </trkpt>
      <trkpt lat="62.329450749486" lon="17.420502251354">
        <ele>33.2</ele>
        <time>2018-08-01T07:43:09Z</time>
      </trkpt>
      <trkpt lat="62.329352429799" lon="17.420695035054">
        <ele>34</ele>
        <time>2018-08-01T07:43:15Z</time>
      </trkpt>
      <trkpt lat="62.329266766781" lon="17.420807017238">
        <ele>34.2</ele>
        <time>2018-08-01T07:43:19Z</time>
      </trkpt>
      <trkpt lat="62.329186635817" lon="17.420897709396">
        <ele>35.4</ele>
        <time>2018-08-01T07:43:23Z</time>
      </trkpt>
      <trkpt lat="62.329072474339" lon="17.42102896995">
        <ele>35.4</ele>
        <time>2018-08-01T07:43:29Z</time>
      </trkpt>
      <trkpt lat="62.328938950672" lon="17.421147909111">
        <ele>35.2</ele>
        <time>2018-08-01T07:43:35Z</time>
      </trkpt>
      <trkpt lat="62.328809701774" lon="17.421237176346">
        <ele>35.4</ele>
        <time>2018-08-01T07:43:41Z</time>
      </trkpt>
      <trkpt lat="62.328659833402" lon="17.421331472721">
        <ele>36</ele>
        <time>2018-08-01T07:43:47Z</time>
      </trkpt>
      <trkpt lat="62.328599483722" lon="17.421375226239">
        <ele>36.6</ele>
        <time>2018-08-01T07:43:50Z</time>
      </trkpt>
      <trkpt lat="62.328449112436" lon="17.421518305272">
        <ele>37</ele>
        <time>2018-08-01T07:43:56Z</time>
      </trkpt>
      <trkpt lat="62.328296897132" lon="17.421588126499">
        <ele>36.8</ele>
        <time>2018-08-01T07:44:02Z</time>
      </trkpt>
      <trkpt lat="62.328161194171" lon="17.421654175871">
        <ele>36.6</ele>
        <time>2018-08-01T07:44:08Z</time>
      </trkpt>
      <trkpt lat="62.327988107936" lon="17.421764230218">
        <ele>36.6</ele>
        <time>2018-08-01T07:44:14Z</time>
      </trkpt>
      <trkpt lat="62.327801862118" lon="17.421937400272">
        <ele>36.8</ele>
        <time>2018-08-01T07:44:20Z</time>
      </trkpt>
      <trkpt lat="62.327678899645" lon="17.422060530383">
        <ele>38</ele>
        <time>2018-08-01T07:44:25Z</time>
      </trkpt>
      <trkpt lat="62.327613017911" lon="17.422083832065">
        <ele>39.2</ele>
        <time>2018-08-01T07:44:28Z</time>
      </trkpt>
      <trkpt lat="62.327491061266" lon="17.422262534173">
        <ele>39.8</ele>
        <time>2018-08-01T07:44:34Z</time>
      </trkpt>
      <trkpt lat="62.327387963896" lon="17.422453725312">
        <ele>40.2</ele>
        <time>2018-08-01T07:44:40Z</time>
      </trkpt>
      <trkpt lat="62.327312107701" lon="17.42265002941">
        <ele>41.4</ele>
        <time>2018-08-01T07:44:45Z</time>
      </trkpt>
      <trkpt lat="62.327200209336" lon="17.422838035427">
        <ele>42</ele>
        <time>2018-08-01T07:44:51Z</time>
      </trkpt>
      <trkpt lat="62.327110690644" lon="17.423031070584">
        <ele>42.6</ele>
        <time>2018-08-01T07:44:56Z</time>
      </trkpt>
      <trkpt lat="62.327006084532" lon="17.423231817089">
        <ele>42.8</ele>
        <time>2018-08-01T07:45:02Z</time>
      </trkpt>
      <trkpt lat="62.326909944139" lon="17.423337093753">
        <ele>42.8</ele>
        <time>2018-08-01T07:45:08Z</time>
      </trkpt>
      <trkpt lat="62.326804332199" lon="17.423553682049">
        <ele>42.8</ele>
        <time>2018-08-01T07:45:14Z</time>
      </trkpt>
      <trkpt lat="62.326712131299" lon="17.423798014434">
        <ele>42.8</ele>
        <time>2018-08-01T07:45:20Z</time>
      </trkpt>
      <trkpt lat="62.3265930245" lon="17.423993731799">
        <ele>42.8</ele>
        <time>2018-08-01T07:45:26Z</time>
      </trkpt>
      <trkpt lat="62.32647316333" lon="17.424232448311">
        <ele>42.6</ele>
        <time>2018-08-01T07:45:32Z</time>
      </trkpt>
      <trkpt lat="62.326375346557" lon="17.424538974394">
        <ele>42.8</ele>
        <time>2018-08-01T07:45:38Z</time>
      </trkpt>
      <trkpt lat="62.326276775413" lon="17.424790850489">
        <ele>42.8</ele>
        <time>2018-08-01T07:45:44Z</time>
      </trkpt>
      <trkpt lat="62.326169654731" lon="17.42503048901">
        <ele>42.6</ele>
        <time>2018-08-01T07:45:50Z</time>
      </trkpt>
      <trkpt lat="62.32605825928" lon="17.425288064797">
        <ele>42.6</ele>
        <time>2018-08-01T07:45:56Z</time>
      </trkpt>
      <trkpt lat="62.325968656769" lon="17.425534995571">
        <ele>42.8</ele>
        <time>2018-08-01T07:46:02Z</time>
      </trkpt>
      <trkpt lat="62.325848460323" lon="17.425955934589">
        <ele>43</ele>
        <time>2018-08-01T07:46:09Z</time>
      </trkpt>
      <trkpt lat="62.325790206118" lon="17.426262376853">
        <ele>43.2</ele>
        <time>2018-08-01T07:46:15Z</time>
      </trkpt>
      <trkpt lat="62.325741255822" lon="17.426547109996">
        <ele>43.2</ele>
        <time>2018-08-01T07:46:21Z</time>
      </trkpt>
      <trkpt lat="62.325726838954" lon="17.426745844845">
        <ele>43</ele>
        <time>2018-08-01T07:46:25Z</time>
      </trkpt>
      <trkpt lat="62.3256877793" lon="17.427042228829">
        <ele>42.8</ele>
        <time>2018-08-01T07:46:31Z</time>
      </trkpt>
      <trkpt lat="62.325624160679" lon="17.427389239489">
        <ele>42.8</ele>
        <time>2018-08-01T07:46:37Z</time>
      </trkpt>
      <trkpt lat="62.325572192899" lon="17.427727449154">
        <ele>42.6</ele>
        <time>2018-08-01T07:46:43Z</time>
      </trkpt>
      <trkpt lat="62.325535983091" lon="17.428052666874">
        <ele>42.8</ele>
        <time>2018-08-01T07:46:49Z</time>
      </trkpt>
      <trkpt lat="62.325478986171" lon="17.428385847399">
        <ele>42.6</ele>
        <time>2018-08-01T07:46:55Z</time>
      </trkpt>
      <trkpt lat="62.325420061414" lon="17.428743167796">
        <ele>42.6</ele>
        <time>2018-08-01T07:47:01Z</time>
      </trkpt>
      <trkpt lat="62.325335068948" lon="17.429098727994">
        <ele>42.2</ele>
        <time>2018-08-01T07:47:07Z</time>
      </trkpt>
      <trkpt lat="62.325257871649" lon="17.429474237114">
        <ele>42.2</ele>
        <time>2018-08-01T07:47:13Z</time>
      </trkpt>
      <trkpt lat="62.325168436776" lon="17.429809345476">
        <ele>42.4</ele>
        <time>2018-08-01T07:47:19Z</time>
      </trkpt>
      <trkpt lat="62.3250842825" lon="17.43017362285">
        <ele>42.4</ele>
        <time>2018-08-01T07:47:25Z</time>
      </trkpt>
      <trkpt lat="62.324993422704" lon="17.430479813657">
        <ele>42</ele>
        <time>2018-08-01T07:47:31Z</time>
      </trkpt>
      <trkpt lat="62.324913962292" lon="17.430779215125">
        <ele>41.6</ele>
        <time>2018-08-01T07:47:37Z</time>
      </trkpt>
      <trkpt lat="62.324897785225" lon="17.430823471557">
        <ele>41.6</ele>
        <time>2018-08-01T07:47:38Z</time>
      </trkpt>
      <trkpt lat="62.324791586552" lon="17.431119520265">
        <ele>40.8</ele>
        <time>2018-08-01T07:47:44Z</time>
      </trkpt>
      <trkpt lat="62.324749341776" lon="17.431218929599">
        <ele>40.4</ele>
        <time>2018-08-01T07:47:46Z</time>
      </trkpt>
      <trkpt lat="62.324619506145" lon="17.431443313062">
        <ele>39.6</ele>
        <time>2018-08-01T07:47:52Z</time>
      </trkpt>
      <trkpt lat="62.324556641895" lon="17.43154071074">
        <ele>39.4</ele>
        <time>2018-08-01T07:47:55Z</time>
      </trkpt>
      <trkpt lat="62.324449605032" lon="17.431790658998">
        <ele>39.4</ele>
        <time>2018-08-01T07:48:01Z</time>
      </trkpt>
      <trkpt lat="62.324310046397" lon="17.431917141869">
        <ele>39.6</ele>
        <time>2018-08-01T07:48:07Z</time>
      </trkpt>
      <trkpt lat="62.324141234931" lon="17.432034656107">
        <ele>39.8</ele>
        <time>2018-08-01T07:48:13Z</time>
      </trkpt>
      <trkpt lat="62.323975608587" lon="17.432208496713">
        <ele>39</ele>
        <time>2018-08-01T07:48:18Z</time>
      </trkpt>
      <trkpt lat="62.323832278097" lon="17.432465821043">
        <ele>38.8</ele>
        <time>2018-08-01T07:48:24Z</time>
      </trkpt>
      <trkpt lat="62.323750219296" lon="17.432785087614">
        <ele>38.6</ele>
        <time>2018-08-01T07:48:30Z</time>
      </trkpt>
      <trkpt lat="62.323732533487" lon="17.43290444587">
        <ele>38.2</ele>
        <time>2018-08-01T07:48:32Z</time>
      </trkpt>
      <trkpt lat="62.323696156041" lon="17.433275344945">
        <ele>37.2</ele>
        <time>2018-08-01T07:48:38Z</time>
      </trkpt>
      <trkpt lat="62.323673944006" lon="17.433637526844">
        <ele>37.2</ele>
        <time>2018-08-01T07:48:44Z</time>
      </trkpt>
      <trkpt lat="62.323636979827" lon="17.434025860271">
        <ele>36.8</ele>
        <time>2018-08-01T07:48:50Z</time>
      </trkpt>
      <trkpt lat="62.323602027304" lon="17.434293494338">
        <ele>36.2</ele>
        <time>2018-08-01T07:48:55Z</time>
      </trkpt>
      <trkpt lat="62.323556429768" lon="17.434656682065">
        <ele>35</ele>
        <time>2018-08-01T07:49:01Z</time>
      </trkpt>
      <trkpt lat="62.323521141969" lon="17.434898248423">
        <ele>33.8</ele>
        <time>2018-08-01T07:49:05Z</time>
      </trkpt>
      <trkpt lat="62.323457942443" lon="17.435275182466">
        <ele>32.8</ele>
        <time>2018-08-01T07:49:11Z</time>
      </trkpt>
      <trkpt lat="62.32343975372" lon="17.435326563513">
        <ele>32.4</ele>
        <time>2018-08-01T07:49:12Z</time>
      </trkpt>
      <trkpt lat="62.32341544621" lon="17.435363779149">
        <ele>32</ele>
        <time>2018-08-01T07:49:13Z</time>
      </trkpt>
      <trkpt lat="62.323357359643" lon="17.435414405825">
        <ele>31.4</ele>
        <time>2018-08-01T07:49:15Z</time>
      </trkpt>
      <trkpt lat="62.323193912593" lon="17.435538374126">
        <ele>30.8</ele>
        <time>2018-08-01T07:49:21Z</time>
      </trkpt>
      <trkpt lat="62.323030130267" lon="17.435642309686">
        <ele>30.6</ele>
        <time>2018-08-01T07:49:27Z</time>
      </trkpt>
      <trkpt lat="62.32286140262" lon="17.435778096466">
        <ele>30.2</ele>
        <time>2018-08-01T07:49:33Z</time>
      </trkpt>
      <trkpt lat="62.322711031334" lon="17.435898795826">
        <ele>30.2</ele>
        <time>2018-08-01T07:49:39Z</time>
      </trkpt>
      <trkpt lat="62.322561917333" lon="17.436035588434">
        <ele>29.8</ele>
        <time>2018-08-01T07:49:45Z</time>
      </trkpt>
      <trkpt lat="62.322422107241" lon="17.436143798763">
        <ele>30</ele>
        <time>2018-08-01T07:49:51Z</time>
      </trkpt>
      <trkpt lat="62.322271568317" lon="17.436260810087">
        <ele>30.4</ele>
        <time>2018-08-01T07:49:57Z</time>
      </trkpt>
      <trkpt lat="62.322102673032" lon="17.436390561899">
        <ele>31</ele>
        <time>2018-08-01T07:50:03Z</time>
      </trkpt>
      <trkpt lat="62.322074928943" lon="17.436407996251">
        <ele>31.4</ele>
        <time>2018-08-01T07:50:04Z</time>
      </trkpt>
      <trkpt lat="62.321936459955" lon="17.43646172423">
        <ele>32.4</ele>
        <time>2018-08-01T07:50:09Z</time>
      </trkpt>
      <trkpt lat="62.321768570498" lon="17.436498436952">
        <ele>33</ele>
        <time>2018-08-01T07:50:15Z</time>
      </trkpt>
      <trkpt lat="62.321717105632" lon="17.436500616246">
        <ele>33.4</ele>
        <time>2018-08-01T07:50:17Z</time>
      </trkpt>
      <trkpt lat="62.321576038255" lon="17.43647848803">
        <ele>34.2</ele>
        <time>2018-08-01T07:50:23Z</time>
      </trkpt>
      <trkpt lat="62.321552820392" lon="17.436477482202">
        <ele>34.6</ele>
        <time>2018-08-01T07:50:24Z</time>
      </trkpt>
      <trkpt lat="62.321421476019" lon="17.436512183268">
        <ele>35.2</ele>
        <time>2018-08-01T07:50:30Z</time>
      </trkpt>
      <trkpt lat="62.321264063937" lon="17.436513105277">
        <ele>35.2</ele>
        <time>2018-08-01T07:50:36Z</time>
      </trkpt>
      <trkpt lat="62.321111597176" lon="17.436513021458">
        <ele>35.6</ele>
        <time>2018-08-01T07:50:42Z</time>
      </trkpt>
      <trkpt lat="62.321086702933" lon="17.436507908499">
        <ele>35.6</ele>
        <time>2018-08-01T07:50:43Z</time>
      </trkpt>
      <trkpt lat="62.320927865928" lon="17.436537664244">
        <ele>36.2</ele>
        <time>2018-08-01T07:50:49Z</time>
      </trkpt>
      <trkpt lat="62.320755617883" lon="17.436710834298">
        <ele>36.6</ele>
        <time>2018-08-01T07:50:55Z</time>
      </trkpt>
      <trkpt lat="62.320673978177" lon="17.436837736264">
        <ele>36.8</ele>
        <time>2018-08-01T07:50:58Z</time>
      </trkpt>
      <trkpt lat="62.320505753444" lon="17.436871012407">
        <ele>37.2</ele>
        <time>2018-08-01T07:51:04Z</time>
      </trkpt>
      <trkpt lat="62.320334092132" lon="17.436920381798">
        <ele>37.4</ele>
        <time>2018-08-01T07:51:10Z</time>
      </trkpt>
      <trkpt lat="62.320162011725" lon="17.436954328493">
        <ele>37.8</ele>
        <time>2018-08-01T07:51:16Z</time>
      </trkpt>
      <trkpt lat="62.319932850579" lon="17.437026915747">
        <ele>36.2</ele>
        <time>2018-08-01T07:51:23Z</time>
      </trkpt>
      <trkpt lat="62.319760015801" lon="17.437118529914">
        <ele>37</ele>
        <time>2018-08-01T07:51:29Z</time>
      </trkpt>
      <trkpt lat="62.319596401113" lon="17.437216849601">
        <ele>37.2</ele>
        <time>2018-08-01T07:51:35Z</time>
      </trkpt>
      <trkpt lat="62.31942901457" lon="17.437339225341">
        <ele>37.6</ele>
        <time>2018-08-01T07:51:41Z</time>
      </trkpt>
      <trkpt lat="62.319272356859" lon="17.437423547255">
        <ele>38</ele>
        <time>2018-08-01T07:51:47Z</time>
      </trkpt>
      <trkpt lat="62.319125422152" lon="17.437572996532">
        <ele>38.4</ele>
        <time>2018-08-01T07:51:53Z</time>
      </trkpt>
      <trkpt lat="62.318995754159" lon="17.437707358389">
        <ele>38.2</ele>
        <time>2018-08-01T07:51:59Z</time>
      </trkpt>
      <trkpt lat="62.318854267687" lon="17.43783551764">
        <ele>38.2</ele>
        <time>2018-08-01T07:52:05Z</time>
      </trkpt>
      <trkpt lat="62.318721749848" lon="17.437937860639">
        <ele>38.6</ele>
        <time>2018-08-01T07:52:11Z</time>
      </trkpt>
      <trkpt lat="62.318581688299" lon="17.438056632162">
        <ele>39.2</ele>
        <time>2018-08-01T07:52:17Z</time>
      </trkpt>
      <trkpt lat="62.318482111327" lon="17.438134164737">
        <ele>39.4</ele>
        <time>2018-08-01T07:52:21Z</time>
      </trkpt>
      <trkpt lat="62.318308857454" lon="17.438263916549">
        <ele>39.4</ele>
        <time>2018-08-01T07:52:27Z</time>
      </trkpt>
      <trkpt lat="62.318128730423" lon="17.438387717212">
        <ele>39.4</ele>
        <time>2018-08-01T07:52:32Z</time>
      </trkpt>
      <trkpt lat="62.317967378848" lon="17.43857312484">
        <ele>39.6</ele>
        <time>2018-08-01T07:52:37Z</time>
      </trkpt>
      <trkpt lat="62.317809882947" lon="17.438778900485">
        <ele>39.2</ele>
        <time>2018-08-01T07:52:42Z</time>
      </trkpt>
      <trkpt lat="62.317750622914" lon="17.438873699774">
        <ele>38.8</ele>
        <time>2018-08-01T07:52:44Z</time>
      </trkpt>
      <trkpt lat="62.317675772547" lon="17.438978473524">
        <ele>38.6</ele>
        <time>2018-08-01T07:52:48Z</time>
      </trkpt>
      <trkpt lat="62.317675604909" lon="17.438979311714">
        <ele>38.6</ele>
        <time>2018-08-01T07:52:49Z</time>
      </trkpt>
      <trkpt lat="62.317794795527" lon="17.438991884564">
        <ele>38.8</ele>
        <time>2018-08-01T07:53:10Z</time>
      </trkpt>
      <trkpt lat="62.317840309244" lon="17.439066651112">
        <ele>38.6</ele>
        <time>2018-08-01T07:53:14Z</time>
      </trkpt>
      <trkpt lat="62.317888253712" lon="17.439286089254">
        <ele>38.4</ele>
        <time>2018-08-01T07:53:18Z</time>
      </trkpt>
      <trkpt lat="62.317938545112" lon="17.439531511286">
        <ele>37</ele>
        <time>2018-08-01T07:53:22Z</time>
      </trkpt>
      <trkpt lat="62.318012389651" lon="17.439915234668">
        <ele>36.2</ele>
        <time>2018-08-01T07:53:28Z</time>
      </trkpt>
      <trkpt lat="62.318023956673" lon="17.439977763642">
        <ele>36</ele>
        <time>2018-08-01T07:53:29Z</time>
      </trkpt>
      <trkpt lat="62.318084473991" lon="17.440268699391">
        <ele>35</ele>
        <time>2018-08-01T07:53:34Z</time>
      </trkpt>
      <trkpt lat="62.318205760084" lon="17.440523425332">
        <ele>34</ele>
        <time>2018-08-01T07:53:40Z</time>
      </trkpt>
      <trkpt lat="62.318251692896" lon="17.440583188279">
        <ele>33.8</ele>
        <time>2018-08-01T07:53:42Z</time>
      </trkpt>
      <trkpt lat="62.31837205698" lon="17.440796172358">
        <ele>32.8</ele>
        <time>2018-08-01T07:53:48Z</time>
      </trkpt>
      <trkpt lat="62.318407763874" lon="17.440971521706">
        <ele>31.6</ele>
        <time>2018-08-01T07:53:51Z</time>
      </trkpt>
      <trkpt lat="62.318411032815" lon="17.441182913224">
        <ele>30.6</ele>
        <time>2018-08-01T07:53:55Z</time>
      </trkpt>
      <trkpt lat="62.318410865177" lon="17.441463036322">
        <ele>29.4</ele>
        <time>2018-08-01T07:54:00Z</time>
      </trkpt>
      <trkpt lat="62.31839301173" lon="17.441842317297">
        <ele>28.6</ele>
        <time>2018-08-01T07:54:06Z</time>
      </trkpt>
      <trkpt lat="62.318385300382" lon="17.441903086072">
        <ele>28.4</ele>
        <time>2018-08-01T07:54:07Z</time>
      </trkpt>
      <trkpt lat="62.318329057833" lon="17.442248839447">
        <ele>27.6</ele>
        <time>2018-08-01T07:54:13Z</time>
      </trkpt>
      <trkpt lat="62.318321262666" lon="17.442310194955">
        <ele>27.4</ele>
        <time>2018-08-01T07:54:14Z</time>
      </trkpt>
      <trkpt lat="62.318286477781" lon="17.442586713836">
        <ele>26.4</ele>
        <time>2018-08-01T07:54:19Z</time>
      </trkpt>
      <trkpt lat="62.318284969039" lon="17.442898688154">
        <ele>25.2</ele>
        <time>2018-08-01T07:54:24Z</time>
      </trkpt>
      <trkpt lat="62.318406338951" lon="17.443129609499">
        <ele>24.4</ele>
        <time>2018-08-01T07:54:30Z</time>
      </trkpt>
      <trkpt lat="62.318446739709" lon="17.443184427125">
        <ele>24.2</ele>
        <time>2018-08-01T07:54:32Z</time>
      </trkpt>
      <trkpt lat="62.318588645276" lon="17.443324656312">
        <ele>24</ele>
        <time>2018-08-01T07:54:38Z</time>
      </trkpt>
      <trkpt lat="62.318659388512" lon="17.443458347617">
        <ele>23.8</ele>
        <time>2018-08-01T07:54:42Z</time>
      </trkpt>
      <trkpt lat="62.318640110142" lon="17.443565468299">
        <ele>23.6</ele>
        <time>2018-08-01T07:54:44Z</time>
      </trkpt>
      <trkpt lat="62.318588645276" lon="17.443730424091">
        <ele>23</ele>
        <time>2018-08-01T07:54:48Z</time>
      </trkpt>
    </trkseg>
  </trk>
</gpx>